Farmington Hills, MI (48331)

06:48 EDT 1. Listopad 2014 (GMT -0400)
Shenandoah Golf Estates | Change Station
CLOSE
Current Station
Osobní povětrnostní stanice
Location: West Bloomfield, MI
Nadmořská výška: 994 ft
Poblíž povětrnostní stanice

Výška 994 ft 42.56 °N, 83.39 °W | Updated 6 seconds ago

Částečně oblačno
Částečně oblačno
31.5 °F
Pocit jako 32 °F
S
1.0
Vítr proměnlivý Vítr od severní
Gusts 7.0 mil/h

Dnes
Vysoké -- | Nízké -- °F
--% Možnost srážek
Včera
Vysoké -- | Nízké -- °F
Precip. -- inčů
8:07 AM 6:26 PM
Dorůstající měsíc, 65% visible
Tlak 30.22 inčů
Viditelnost 10.0 mílí
Zataženo Polojasno 2300 ft
Skoro zataženo 3700 ft
Ochlazování větrem 32 °F
Rosný bod 27 °F
Vlhkost 82%
Dešťové srážky 0.00 inčů
Sněhová pokrývka Není k dispozici
UV záření 0 ze 12
Pyl .10 ze 12
Kvalita ovzduší Není k dispozici
Flu Activity Není k dispozici
METAR KPTK 010953Z 36020G28KT 10SM SCT023 BKN037 00/M04 A3019 RMK AO2 PK WND 36028/0952 SLP234 FIRST AUGMENTED OBS OF THE DAY T00001044

More Conditions Fewer Conditions

Tlak 30.22 inčů
Viditelnost 10.0 mílí
Zataženo Polojasno 2300 ft
Skoro zataženo 3700 ft
Ochlazování větrem 32 °F
Rosný bod 27 °F
Vlhkost 82%
Dešťové srážky 0.00 inčů
Sněhová pokrývka Není k dispozici
UV záření 0 ze 12
Pyl .10 ze 12
Kvalita ovzduší Není k dispozici
Flu Activity Není k dispozici
METAR KPTK 010953Z 36020G28KT 10SM SCT023 BKN037 00/M04 A3019 RMK AO2 PK WND 36028/0952 SLP234 FIRST AUGMENTED OBS OF THE DAY T00001044

More Conditions Fewer Conditions

10-Day Weather Forecast

Almanac

Astronomie

Nov. 01, 2014 Východ Západ
Skutečný čas
Občanský soumrak
Námořní soumrak
Astronomický soumrak
Měsíc
Délka denního světla
Délka dne
Tomorrow will be .
, % of the Moon is Illuminated

Dnešní extrémy

State Highs State Lows

Community

WunderPhotos

Upload Photos

1,766,875 snímků staženo!

WunderBlogs® & News

Nearby

Kvalita ovzduší

  Kvalita ovzduší Index kvality ovzduší Polutant
Not available.

Výška sněhu

Station Hloubka Nadmořská výška

Seizmická činnost

Město Distance Mag. Čas & datum
Minimální zobrazený rozsah je 2.5.

Pobřežní teplota vody

Lokalita Teplota

Poblíž povětrnostní stanice